createdAt,value
2022-08-19T00:00:06.853Z,0.00
2022-08-19T00:02:11.343Z,0.00
2022-08-19T00:03:10.892Z,0.00
2022-08-19T00:05:14.920Z,0.00
2022-08-19T00:06:14.936Z,0.00
2022-08-19T00:08:08.422Z,0.00
2022-08-19T00:09:07.898Z,0.00
2022-08-19T00:11:11.915Z,0.00
2022-08-19T00:12:11.934Z,0.00
2022-08-19T00:14:16.433Z,0.00
2022-08-19T00:15:15.965Z,0.00
2022-08-19T00:17:09.451Z,0.00
2022-08-19T00:18:08.925Z,0.00
2022-08-19T00:20:13.924Z,0.00
2022-08-19T00:21:12.973Z,0.00
2022-08-19T00:23:16.990Z,0.00
2022-08-19T00:24:17.019Z,0.00
2022-08-19T00:26:21.506Z,0.00
2022-08-19T00:27:24.960Z,0.00
2022-08-19T00:29:25.078Z,0.00
2022-08-19T00:30:25.098Z,0.00
2022-08-19T00:32:29.590Z,0.00
2022-08-19T00:33:29.144Z,0.00
2022-08-19T00:35:33.166Z,0.00
2022-08-19T00:36:33.197Z,0.00
2022-08-19T00:38:38.336Z,0.00
2022-08-19T00:39:37.287Z,0.00
2022-08-19T00:41:41.259Z,0.00
2022-08-19T00:42:41.272Z,0.00
2022-08-19T00:44:45.767Z,0.00
2022-08-19T00:45:45.323Z,0.00
2022-08-19T00:47:38.265Z,0.00
2022-08-19T00:48:38.288Z,0.00
2022-08-19T00:50:51.941Z,0.00
2022-08-19T00:51:42.327Z,0.00
2022-08-19T00:53:46.361Z,0.00
2022-08-19T00:54:49.651Z,0.00
2022-08-19T00:56:50.865Z,0.00
2022-08-19T00:57:50.410Z,0.00
2022-08-19T01:00:01.509Z,0.00
2022-08-19T01:00:54.474Z,0.00
2022-08-19T01:02:58.481Z,0.00
2022-08-19T01:03:58.882Z,0.00
2022-08-19T01:06:03.056Z,0.00
2022-08-19T01:07:02.540Z,0.00
2022-08-19T01:09:06.565Z,0.00
2022-08-19T01:10:06.591Z,0.00
2022-08-19T01:12:11.075Z,0.00
2022-08-19T01:13:10.623Z,0.00
2022-08-19T01:15:14.657Z,0.00
2022-08-19T01:16:14.670Z,0.00
2022-08-19T01:18:08.154Z,0.00
2022-08-19T01:19:07.632Z,0.00
2022-08-19T01:21:11.658Z,0.00
2022-08-19T01:22:14.568Z,0.00
2022-08-19T01:24:16.168Z,0.00
2022-08-19T01:25:15.719Z,0.00
2022-08-19T01:27:10.815Z,0.00
2022-08-19T01:28:10.689Z,0.00
2022-08-19T01:30:12.705Z,0.00
2022-08-19T01:31:26.464Z,0.00
2022-08-19T01:33:17.215Z,0.00
2022-08-19T01:34:16.766Z,0.00
2022-08-19T01:36:20.787Z,0.00
2022-08-19T01:37:25.003Z,0.00
2022-08-19T01:39:25.303Z,0.00
2022-08-19T01:40:24.848Z,0.00
2022-08-19T01:42:30.136Z,0.00
2022-08-19T01:43:28.890Z,0.00
2022-08-19T01:45:33.385Z,0.00
2022-08-19T01:46:32.931Z,0.00
2022-08-19T01:48:36.974Z,0.00
2022-08-19T01:49:37.006Z,0.00
2022-08-19T01:51:30.477Z,0.00
2022-08-19T01:52:29.972Z,0.00
2022-08-19T01:54:34.477Z,0.00
2022-08-19T01:55:34.026Z,0.00
2022-08-19T01:57:27.000Z,0.00
2022-08-19T01:58:27.015Z,0.00
2022-08-19T02:00:31.515Z,0.00
2022-08-19T02:01:31.391Z,0.00
2022-08-19T02:03:35.084Z,0.00
2022-08-19T02:04:35.106Z,0.00
2022-08-19T02:06:39.600Z,0.00
2022-08-19T02:07:39.145Z,0.00
2022-08-19T02:09:43.199Z,0.00
2022-08-19T02:10:43.230Z,0.00
2022-08-19T02:12:50.715Z,0.00
2022-08-19T02:13:47.253Z,0.00
2022-08-19T02:15:51.292Z,0.00
2022-08-19T02:16:51.297Z,0.00
2022-08-19T02:18:55.795Z,0.00
2022-08-19T02:19:55.335Z,0.00
2022-08-19T02:21:59.371Z,0.00
2022-08-19T02:22:59.389Z,0.00
2022-08-19T02:25:03.891Z,0.00
2022-08-19T02:26:03.423Z,0.00
2022-08-19T02:27:56.398Z,0.00
2022-08-19T02:28:56.410Z,0.00
2022-08-19T02:31:00.924Z,0.00
2022-08-19T02:32:00.450Z,0.00
2022-08-19T02:34:04.481Z,0.00
2022-08-19T02:35:04.516Z,0.00
2022-08-19T02:37:08.994Z,0.00
2022-08-19T02:38:08.534Z,0.00
2022-08-19T02:40:12.871Z,0.00
2022-08-19T02:41:12.574Z,0.00
2022-08-19T02:43:17.082Z,0.00
2022-08-19T02:44:30.612Z,0.00
2022-08-19T02:46:09.762Z,0.00
2022-08-19T02:47:09.776Z,0.00
2022-08-19T02:49:14.277Z,0.00
2022-08-19T02:50:13.817Z,0.00
2022-08-19T02:52:17.841Z,0.00
2022-08-19T02:53:17.860Z,0.00
2022-08-19T02:55:22.356Z,0.00
2022-08-19T02:56:21.902Z,0.00
2022-08-19T02:58:25.941Z,0.00
2022-08-19T02:59:25.956Z,0.00
2022-08-19T03:01:30.532Z,0.00
2022-08-19T03:02:30.005Z,0.00
2022-08-19T03:04:34.029Z,0.00
2022-08-19T03:05:48.084Z,0.00
2022-08-19T03:07:27.046Z,0.00
2022-08-19T03:08:27.028Z,0.00
2022-08-19T03:10:31.029Z,0.00
2022-08-19T03:11:31.054Z,0.00
2022-08-19T03:13:27.528Z,0.00
2022-08-19T03:14:24.209Z,0.00
2022-08-19T03:16:28.720Z,0.00
2022-08-19T03:17:28.740Z,0.00
2022-08-19T03:18:28.764Z,0.00
2022-08-19T03:19:28.793Z,0.00
2022-08-19T03:20:28.823Z,0.00
2022-08-19T03:21:28.848Z,0.00
2022-08-19T03:22:28.874Z,0.00
2022-08-19T03:23:28.900Z,0.00
2022-08-19T03:24:28.928Z,0.00
2022-08-19T03:25:28.955Z,0.00
2022-08-19T03:26:28.988Z,0.00
2022-08-19T03:27:34.185Z,0.00
2022-08-19T03:28:29.041Z,0.00
2022-08-19T03:29:30.972Z,0.00
2022-08-19T03:30:29.092Z,0.00
2022-08-19T03:31:44.156Z,0.00
2022-08-19T03:32:32.577Z,0.00
2022-08-19T03:33:29.172Z,0.00
2022-08-19T03:34:29.201Z,0.00
2022-08-19T03:35:29.227Z,0.00
2022-08-19T03:36:29.539Z,0.00
2022-08-19T03:37:29.285Z,0.00
2022-08-19T03:38:29.310Z,0.00
2022-08-19T03:39:29.405Z,0.00
2022-08-19T03:40:29.367Z,0.00
2022-08-19T03:41:44.455Z,0.00
2022-08-19T03:42:38.705Z,0.00
2022-08-19T03:43:29.468Z,0.00
2022-08-19T03:44:29.478Z,0.00
2022-08-19T03:45:29.502Z,0.00
2022-08-19T03:46:29.528Z,4.00
2022-08-19T03:47:29.556Z,4.00
2022-08-19T03:48:29.584Z,4.00
2022-08-19T03:49:29.607Z,4.00
2022-08-19T03:50:29.646Z,4.00
2022-08-19T03:51:30.840Z,4.00
2022-08-19T03:52:29.694Z,4.00
2022-08-19T03:53:29.716Z,8.00
2022-08-19T03:54:29.747Z,8.00
2022-08-19T03:55:29.776Z,12.00
2022-08-19T03:56:29.803Z,12.00
2022-08-19T03:57:31.740Z,12.00
2022-08-19T03:58:29.855Z,16.00
2022-08-19T03:59:29.882Z,20.00
2022-08-19T04:00:29.910Z,20.00
2022-08-19T04:01:34.785Z,28.00
2022-08-19T04:02:29.970Z,28.00
2022-08-19T04:03:29.993Z,36.00
2022-08-19T04:04:30.037Z,40.00
2022-08-19T04:05:30.051Z,44.00
2022-08-19T04:06:30.075Z,52.00
2022-08-19T04:07:30.107Z,60.00
2022-08-19T04:08:30.129Z,64.00
2022-08-19T04:09:30.158Z,76.00
2022-08-19T04:10:30.188Z,80.00
2022-08-19T04:11:42.972Z,92.00
2022-08-19T04:12:30.237Z,104.00
2022-08-19T04:13:30.264Z,112.00
2022-08-19T04:14:30.292Z,128.00
2022-08-19T04:15:30.320Z,136.00
2022-08-19T04:16:34.950Z,152.00
2022-08-19T04:17:30.373Z,168.00
2022-08-19T04:18:33.575Z,188.00
2022-08-19T04:19:30.427Z,212.00
2022-08-19T04:20:30.455Z,232.00
2022-08-19T04:21:30.485Z,252.00
2022-08-19T04:22:30.512Z,276.00
2022-08-19T04:23:30.539Z,296.00
2022-08-19T04:24:30.567Z,316.00
2022-08-19T04:25:30.590Z,344.00
2022-08-19T04:26:30.631Z,364.00
2022-08-19T04:27:30.650Z,396.00
2022-08-19T04:28:30.673Z,424.00
2022-08-19T04:29:30.702Z,452.00
2022-08-19T04:30:30.728Z,484.00
2022-08-19T04:31:30.754Z,520.00
2022-08-19T04:32:30.785Z,552.00
2022-08-19T04:33:30.809Z,592.00
2022-08-19T04:34:30.839Z,632.00
2022-08-19T04:35:30.864Z,676.00
2022-08-19T04:36:30.890Z,720.00
2022-08-19T04:37:35.071Z,768.00
2022-08-19T04:38:30.947Z,816.00
2022-08-19T04:39:31.023Z,872.00
2022-08-19T04:40:31.002Z,924.00
2022-08-19T04:41:31.027Z,980.00
2022-08-19T04:42:31.195Z,1040.00
2022-08-19T04:43:31.079Z,1104.00
2022-08-19T04:44:31.112Z,1164.00
2022-08-19T04:45:38.816Z,1216.00
2022-08-19T04:46:39.663Z,1264.00
2022-08-19T04:47:49.313Z,1308.00
2022-08-19T04:48:31.216Z,1340.00
2022-08-19T04:49:31.247Z,1384.00
2022-08-19T04:50:31.273Z,1416.00
2022-08-19T04:51:31.303Z,1424.00
2022-08-19T04:52:31.326Z,1400.00
2022-08-19T04:53:37.713Z,1396.00
2022-08-19T04:54:37.751Z,1408.00
2022-08-19T04:55:34.365Z,1428.00
2022-08-19T04:56:31.468Z,1448.00
2022-08-19T04:57:31.464Z,1488.00
2022-08-19T04:58:31.491Z,1516.00
2022-08-19T04:59:31.521Z,1572.00
2022-08-19T05:00:31.547Z,1592.00
2022-08-19T05:01:31.633Z,1600.00
2022-08-19T05:02:31.602Z,1624.00
2022-08-19T05:03:31.628Z,1608.00
2022-08-19T05:04:31.671Z,1600.00
2022-08-19T05:05:31.680Z,1648.00
2022-08-19T05:06:31.713Z,1712.00
2022-08-19T05:07:31.738Z,1760.00
2022-08-19T05:08:31.860Z,1724.00
2022-08-19T05:09:42.174Z,1628.00
2022-08-19T05:10:31.820Z,1564.00
2022-08-19T05:11:31.848Z,1552.00
2022-08-19T05:12:31.878Z,1552.00
2022-08-19T05:13:31.903Z,1556.00
2022-08-19T05:14:31.930Z,1564.00
2022-08-19T05:15:31.957Z,1576.00
2022-08-19T05:16:31.980Z,1588.00
2022-08-19T05:17:37.478Z,1604.00
2022-08-19T05:18:32.037Z,1620.00
2022-08-19T05:19:33.557Z,1644.00
2022-08-19T05:20:32.095Z,1672.00
2022-08-19T05:21:32.120Z,1704.00
2022-08-19T05:22:32.148Z,1748.00
2022-08-19T05:23:32.174Z,1792.00
2022-08-19T05:24:32.204Z,1836.00
2022-08-19T05:25:32.231Z,1876.00
2022-08-19T05:26:32.258Z,1916.00
2022-08-19T05:27:32.284Z,1956.00
2022-08-19T05:28:32.315Z,2000.00
2022-08-19T05:29:36.430Z,2048.00
2022-08-19T05:30:46.516Z,2092.00
2022-08-19T05:31:32.396Z,2144.00
2022-08-19T05:32:32.423Z,2208.00
2022-08-19T05:33:32.448Z,2276.00
2022-08-19T05:34:32.480Z,2336.00
2022-08-19T05:35:34.742Z,2384.00
2022-08-19T05:36:32.532Z,2468.00
2022-08-19T05:37:32.562Z,2576.00
2022-08-19T05:38:32.588Z,2656.00
2022-08-19T05:39:32.654Z,2708.00
2022-08-19T05:40:32.648Z,2784.00
2022-08-19T05:41:32.670Z,2856.00
2022-08-19T05:42:32.696Z,2948.00
2022-08-19T05:43:32.718Z,3040.00
2022-08-19T05:44:32.752Z,3124.00
2022-08-19T05:45:32.775Z,3264.00
2022-08-19T05:46:32.805Z,3524.00
2022-08-19T05:47:32.836Z,3904.00
2022-08-19T05:48:32.862Z,4160.00
2022-08-19T05:49:32.892Z,4224.00
2022-08-19T05:50:32.915Z,4564.00
2022-08-19T05:51:32.947Z,4968.00
2022-08-19T05:52:33.457Z,5088.00
2022-08-19T05:53:33.010Z,5104.00
2022-08-19T05:54:33.030Z,5264.00
2022-08-19T05:55:33.053Z,5304.00
2022-08-19T05:56:33.083Z,5288.00
2022-08-19T05:57:33.112Z,5464.00
2022-08-19T05:58:33.137Z,5728.00
2022-08-19T05:59:33.163Z,5928.00
2022-08-19T06:00:33.192Z,6044.00
2022-08-19T06:01:33.220Z,6048.00
2022-08-19T06:02:33.303Z,6096.00
2022-08-19T06:03:33.275Z,6124.00
2022-08-19T06:04:33.306Z,6108.00
2022-08-19T06:05:33.333Z,6072.00
2022-08-19T06:06:33.356Z,6052.00
2022-08-19T06:07:33.386Z,6028.00
2022-08-19T06:08:34.185Z,6020.00
2022-08-19T06:09:33.448Z,6080.00
2022-08-19T06:10:33.473Z,6184.00
2022-08-19T06:11:33.501Z,7652.00
2022-08-19T06:12:33.529Z,9872.00
2022-08-19T06:13:35.238Z,10260.00
2022-08-19T06:14:33.587Z,10520.00
2022-08-19T06:15:33.611Z,10792.00
2022-08-19T06:16:33.660Z,11952.00
2022-08-19T06:17:33.672Z,15520.00
2022-08-19T06:18:33.698Z,18144.00
2022-08-19T06:19:33.729Z,18528.00
2022-08-19T06:20:54.461Z,19936.00
2022-08-19T06:21:33.787Z,21600.00
2022-08-19T06:22:33.815Z,23488.00
2022-08-19T06:23:33.847Z,24832.00
2022-08-19T06:24:33.876Z,25952.00
2022-08-19T06:25:33.905Z,27360.00
2022-08-19T06:26:33.987Z,25408.00
2022-08-19T06:27:33.965Z,25408.00
2022-08-19T06:28:33.997Z,25504.00
2022-08-19T06:29:34.033Z,25184.00
2022-08-19T06:30:34.056Z,25472.00
2022-08-19T06:31:34.089Z,25632.00
2022-08-19T06:32:34.122Z,25920.00
2022-08-19T06:33:34.152Z,25472.00
2022-08-19T06:34:34.211Z,26432.00
2022-08-19T06:35:34.233Z,26880.00
2022-08-19T06:36:34.247Z,26656.00
2022-08-19T06:37:34.276Z,25600.00
2022-08-19T06:38:34.308Z,25376.00
2022-08-19T06:39:34.384Z,24896.00
2022-08-19T06:40:34.443Z,24928.00
2022-08-19T06:41:34.405Z,24608.00
2022-08-19T06:42:34.436Z,24128.00
2022-08-19T06:43:34.491Z,24704.00
2022-08-19T06:44:34.500Z,25248.00
2022-08-19T06:45:39.266Z,25984.00
2022-08-19T06:46:35.292Z,26784.00
2022-08-19T06:47:34.600Z,27648.00
2022-08-19T06:48:38.991Z,27776.00
2022-08-19T06:49:34.666Z,26656.00
2022-08-19T06:50:34.696Z,25728.00
2022-08-19T06:51:34.733Z,24128.00
2022-08-19T06:52:34.762Z,20512.00
2022-08-19T06:53:34.796Z,14752.00
2022-08-19T06:54:37.777Z,17888.00
2022-08-19T06:55:34.861Z,21120.00
2022-08-19T06:56:34.896Z,25792.00
2022-08-19T06:57:34.927Z,27392.00
2022-08-19T06:58:34.961Z,28832.00
2022-08-19T06:59:34.991Z,30048.00
2022-08-19T07:00:35.135Z,31072.00
2022-08-19T07:01:35.061Z,31552.00
2022-08-19T07:02:35.095Z,26624.00
2022-08-19T07:03:35.125Z,13348.00
2022-08-19T07:04:35.168Z,7200.00
2022-08-19T07:05:35.194Z,6792.00
2022-08-19T07:06:43.954Z,6644.00
2022-08-19T07:07:35.260Z,6652.00
2022-08-19T07:08:35.325Z,6588.00
2022-08-19T07:09:35.327Z,6632.00
2022-08-19T07:10:35.362Z,6632.00
2022-08-19T07:11:35.394Z,6672.00
2022-08-19T07:12:36.055Z,6748.00
2022-08-19T07:13:35.462Z,6788.00
2022-08-19T07:14:35.493Z,6828.00
2022-08-19T07:15:35.525Z,6888.00
2022-08-19T07:16:36.643Z,6996.00
2022-08-19T07:17:35.594Z,7076.00
2022-08-19T07:18:35.622Z,7252.00
2022-08-19T07:19:35.663Z,7444.00
2022-08-19T07:20:35.688Z,7608.00
2022-08-19T07:21:35.716Z,7700.00
2022-08-19T07:22:35.748Z,7760.00
2022-08-19T07:24:35.818Z,8080.00
2022-08-19T07:25:35.847Z,8292.00
2022-08-19T07:26:35.877Z,8496.00
2022-08-19T07:27:35.909Z,8524.00
2022-08-19T07:28:35.941Z,8416.00
2022-08-19T07:29:35.979Z,8268.00
2022-08-19T07:30:36.002Z,8148.00
2022-08-19T07:31:36.035Z,7988.00
2022-08-19T07:32:36.068Z,7824.00
2022-08-19T07:33:36.101Z,7692.00
2022-08-19T07:34:36.130Z,7648.00
2022-08-19T07:35:36.162Z,7772.00
2022-08-19T07:36:36.189Z,7944.00
2022-08-19T07:37:36.228Z,8100.00
2022-08-19T07:38:36.253Z,8232.00
2022-08-19T07:39:36.304Z,8428.00
2022-08-19T07:40:36.321Z,8592.00
2022-08-19T07:41:36.355Z,8760.00
2022-08-19T07:42:36.380Z,8980.00
2022-08-19T07:43:36.412Z,9216.00
2022-08-19T07:44:36.492Z,9512.00
2022-08-19T07:45:36.553Z,9800.00
2022-08-19T07:46:36.505Z,10000.00
2022-08-19T07:47:49.524Z,10140.00
2022-08-19T07:48:43.757Z,10112.00
2022-08-19T07:50:30.054Z,9700.00
2022-08-19T07:51:37.020Z,9688.00
2022-08-19T07:53:39.169Z,9920.00
2022-08-19T07:54:33.792Z,10052.00
2022-08-19T07:56:37.822Z,10464.00
2022-08-19T07:57:37.891Z,10568.00
2022-08-19T07:59:42.343Z,10840.00
2022-08-19T08:00:41.897Z,10988.00
2022-08-19T08:02:45.933Z,11220.00
2022-08-19T08:03:45.946Z,11176.00
2022-08-19T08:05:50.453Z,10468.00
2022-08-19T08:06:50.000Z,10384.00
2022-08-19T08:08:54.039Z,10336.00
2022-08-19T08:12:01.977Z,10584.00
2022-08-19T08:13:09.354Z,10664.00
2022-08-19T08:15:02.607Z,10800.00
2022-08-19T08:16:02.168Z,10876.00
2022-08-19T08:17:55.117Z,11156.00
2022-08-19T08:18:55.142Z,11356.00
2022-08-19T08:20:59.656Z,11684.00
2022-08-19T08:21:59.207Z,11764.00
2022-08-19T08:24:03.245Z,12088.00
2022-08-19T08:25:03.266Z,12280.00
2022-08-19T08:27:11.403Z,12480.00
2022-08-19T08:28:07.324Z,12428.00
2022-08-19T08:30:11.356Z,12176.00
2022-08-19T08:31:11.379Z,11956.00
2022-08-19T08:34:15.441Z,11272.00
2022-08-19T08:36:19.940Z,10896.00
2022-08-19T08:37:19.495Z,10784.00
2022-08-19T08:39:23.535Z,10428.00
2022-08-19T08:40:23.600Z,10276.00
2022-08-19T08:42:28.052Z,10544.00
2022-08-19T08:43:27.612Z,10752.00
2022-08-19T08:45:32.950Z,11016.00
2022-08-19T08:46:32.277Z,11084.00
2022-08-19T08:48:36.664Z,10844.00
2022-08-19T08:49:35.723Z,10860.00
2022-08-19T08:52:39.775Z,10452.00
2022-08-19T08:54:48.854Z,9748.00
2022-08-19T08:55:43.831Z,9760.00
2022-08-19T08:57:37.021Z,10932.00
2022-08-19T08:58:36.805Z,11732.00
2022-08-19T09:00:41.306Z,11896.00
2022-08-19T09:01:40.897Z,11920.00
2022-08-19T09:03:44.891Z,10388.00
2022-08-19T09:04:44.921Z,9512.00
2022-08-19T09:06:49.421Z,8568.00
2022-08-19T09:07:49.136Z,8668.00
2022-08-19T09:09:53.009Z,10244.00
2022-08-19T09:10:55.395Z,10848.00
2022-08-19T09:12:57.530Z,9404.00
2022-08-19T09:13:57.089Z,8736.00
2022-08-19T09:16:02.099Z,8964.00
2022-08-19T09:17:01.146Z,9204.00
2022-08-19T09:19:06.456Z,9648.00
2022-08-19T09:20:05.202Z,9476.00
2022-08-19T09:22:09.699Z,8752.00
2022-08-19T09:23:09.259Z,8924.00
2022-08-19T09:25:13.297Z,9536.00
2022-08-19T09:26:13.318Z,10088.00
2022-08-19T09:28:21.936Z,10048.00
2022-08-19T09:29:06.304Z,9704.00
2022-08-19T09:31:10.336Z,9672.00
2022-08-19T09:32:26.677Z,9568.00
2022-08-19T09:34:21.480Z,8160.00
2022-08-19T09:35:14.412Z,7720.00
2022-08-19T09:37:18.460Z,7636.00
2022-08-19T09:38:18.479Z,7824.00
2022-08-19T09:40:23.008Z,8024.00
2022-08-19T09:41:22.537Z,7552.00
2022-08-19T09:42:30.292Z,7276.00
2022-08-19T09:43:32.850Z,6936.00
2022-08-19T09:44:22.635Z,6708.00
2022-08-19T09:45:22.715Z,6768.00
2022-08-19T09:46:22.702Z,6832.00
2022-08-19T09:47:22.730Z,6980.00
2022-08-19T09:48:23.711Z,7340.00
2022-08-19T09:49:22.796Z,7500.00
2022-08-19T09:50:22.830Z,7580.00
2022-08-19T09:51:23.327Z,7704.00
2022-08-19T09:52:22.903Z,7632.00
2022-08-19T09:53:22.927Z,7472.00
2022-08-19T09:54:23.795Z,7304.00
2022-08-19T09:55:22.997Z,7292.00
2022-08-19T09:56:23.035Z,7280.00
2022-08-19T09:57:23.059Z,7324.00
2022-08-19T09:58:26.532Z,7152.00
2022-08-19T09:59:23.146Z,7056.00
2022-08-19T10:00:23.157Z,7180.00
2022-08-19T10:01:23.217Z,7252.00
2022-08-19T10:02:23.223Z,7276.00
2022-08-19T10:03:25.640Z,7432.00
2022-08-19T10:04:23.285Z,7640.00
2022-08-19T10:05:27.001Z,8088.00
2022-08-19T10:06:45.672Z,8436.00
2022-08-19T10:07:23.384Z,7988.00
2022-08-19T10:08:23.422Z,7444.00
2022-08-19T10:09:33.627Z,7372.00
2022-08-19T10:10:23.484Z,7588.00
2022-08-19T10:11:28.650Z,7640.00
2022-08-19T10:12:23.546Z,7692.00
2022-08-19T10:13:23.578Z,7780.00
2022-08-19T10:14:23.706Z,7884.00
2022-08-19T10:15:28.765Z,7756.00
2022-08-19T10:16:26.121Z,7920.00
2022-08-19T10:17:27.426Z,8080.00
2022-08-19T10:18:23.762Z,8232.00
2022-08-19T10:19:25.455Z,8460.00
2022-08-19T10:20:23.809Z,8600.00
2022-08-19T10:21:23.844Z,8720.00
2022-08-19T10:22:23.883Z,9052.00
2022-08-19T10:23:23.909Z,9648.00
2022-08-19T10:24:23.942Z,9864.00
2022-08-19T10:25:23.974Z,9764.00
2022-08-19T10:26:24.004Z,9592.00
2022-08-19T10:27:24.042Z,9872.00
2022-08-19T10:28:24.069Z,10068.00
2022-08-19T10:29:32.643Z,10148.00
2022-08-19T10:30:24.873Z,10148.00
2022-08-19T10:32:00.969Z,10056.00
2022-08-19T10:32:33.847Z,10076.00
2022-08-19T10:33:38.296Z,10192.00
2022-08-19T10:34:27.900Z,10260.00
2022-08-19T10:35:24.305Z,10500.00
2022-08-19T10:36:24.345Z,10584.00
2022-08-19T10:37:29.121Z,10356.00
2022-08-19T10:38:31.639Z,10144.00
2022-08-19T10:39:24.460Z,9804.00
2022-08-19T10:40:24.574Z,9568.00
2022-08-19T10:41:24.504Z,9260.00
2022-08-19T10:42:24.537Z,9068.00
2022-08-19T10:43:24.608Z,8708.00
2022-08-19T10:44:24.604Z,8336.00
2022-08-19T10:45:24.635Z,8100.00
2022-08-19T10:46:24.670Z,7876.00
2022-08-19T10:47:26.109Z,7684.00
2022-08-19T10:48:24.736Z,7660.00
2022-08-19T10:49:24.766Z,7644.00
2022-08-19T10:50:28.445Z,7524.00
2022-08-19T10:51:24.835Z,7356.00
2022-08-19T10:52:32.325Z,7224.00
2022-08-19T10:53:24.913Z,7020.00
2022-08-19T10:54:32.138Z,6904.00
2022-08-19T10:55:24.971Z,7016.00
2022-08-19T10:56:25.011Z,6796.00
2022-08-19T10:57:27.904Z,6860.00
2022-08-19T10:58:25.084Z,7096.00
2022-08-19T10:59:26.858Z,7084.00
2022-08-19T11:00:25.131Z,7116.00
2022-08-19T11:01:25.199Z,7152.00
2022-08-19T11:02:25.206Z,7176.00
2022-08-19T11:03:25.234Z,7288.00
2022-08-19T11:04:28.867Z,7392.00
2022-08-19T11:05:25.303Z,7480.00
2022-08-19T11:06:25.334Z,7932.00
2022-08-19T11:07:25.373Z,8972.00
2022-08-19T11:08:25.402Z,10144.00
2022-08-19T11:09:33.275Z,10884.00
2022-08-19T11:10:25.472Z,11384.00
2022-08-19T11:11:25.509Z,11436.00
2022-08-19T11:12:25.545Z,11240.00
2022-08-19T11:13:25.635Z,10964.00
2022-08-19T11:14:25.605Z,10736.00
2022-08-19T11:15:25.638Z,10344.00
2022-08-19T11:16:25.674Z,10008.00
2022-08-19T11:17:25.713Z,10452.00
2022-08-19T11:18:25.739Z,10248.00
2022-08-19T11:19:25.774Z,9480.00
2022-08-19T11:20:25.815Z,8972.00
2022-08-19T11:21:25.843Z,8996.00
2022-08-19T11:22:28.841Z,9004.00
2022-08-19T11:23:25.909Z,8864.00
2022-08-19T11:24:25.944Z,8664.00
2022-08-19T11:25:25.978Z,8292.00
2022-08-19T11:26:26.012Z,8028.00
2022-08-19T11:27:26.049Z,7620.00
2022-08-19T11:28:26.077Z,7292.00
2022-08-19T11:29:26.113Z,7360.00
2022-08-19T11:30:26.142Z,7512.00
2022-08-19T11:31:28.934Z,7692.00
2022-08-19T11:32:26.214Z,7644.00
2022-08-19T11:33:26.252Z,7512.00
2022-08-19T11:34:26.284Z,7396.00
2022-08-19T11:35:26.320Z,7340.00
2022-08-19T11:36:26.352Z,7308.00
2022-08-19T11:37:26.386Z,7160.00
2022-08-19T11:38:26.421Z,6948.00
2022-08-19T11:39:26.453Z,6700.00
2022-08-19T11:40:26.487Z,6404.00
2022-08-19T11:41:26.524Z,6140.00
2022-08-19T11:42:26.557Z,5928.00
2022-08-19T11:43:26.586Z,5760.00
2022-08-19T11:44:26.623Z,5620.00
2022-08-19T11:45:26.670Z,5524.00
2022-08-19T11:46:26.691Z,5508.00
2022-08-19T11:47:26.720Z,5460.00
2022-08-19T11:48:26.765Z,5392.00
2022-08-19T11:49:26.792Z,5380.00
2022-08-19T11:50:26.829Z,5384.00
2022-08-19T11:51:26.859Z,5432.00
2022-08-19T11:52:26.896Z,5448.00
2022-08-19T11:53:26.931Z,5552.00
2022-08-19T11:54:26.963Z,5716.00
2022-08-19T11:55:26.990Z,5692.00
2022-08-19T11:56:27.025Z,5844.00
2022-08-19T11:57:27.060Z,6144.00
2022-08-19T11:58:27.092Z,6292.00
2022-08-19T11:59:27.139Z,6532.00
2022-08-19T12:00:27.154Z,6744.00
2022-08-19T12:01:27.194Z,6944.00
2022-08-19T12:02:27.227Z,7192.00
2022-08-19T12:03:27.328Z,7176.00
2022-08-19T12:04:27.296Z,7340.00
2022-08-19T12:05:27.326Z,7648.00
2022-08-19T12:06:27.364Z,7736.00
2022-08-19T12:07:27.395Z,7484.00
2022-08-19T12:08:27.426Z,7264.00
2022-08-19T12:09:27.459Z,7008.00
2022-08-19T12:10:27.493Z,6884.00
2022-08-19T12:11:27.528Z,7056.00
2022-08-19T12:12:27.566Z,7240.00
2022-08-19T12:13:27.592Z,7156.00
2022-08-19T12:14:27.628Z,7052.00
2022-08-19T12:15:27.662Z,7040.00
2022-08-19T12:16:27.696Z,6956.00
2022-08-19T12:17:27.738Z,6648.00
2022-08-19T12:18:27.768Z,6356.00
2022-08-19T12:19:27.810Z,5892.00
2022-08-19T12:20:27.830Z,5652.00
2022-08-19T12:21:27.861Z,5500.00
2022-08-19T12:22:27.896Z,5364.00
2022-08-19T12:23:27.933Z,5104.00
2022-08-19T12:24:27.963Z,5084.00
2022-08-19T12:25:27.999Z,5096.00
2022-08-19T12:26:28.030Z,5072.00
2022-08-19T12:27:32.138Z,5040.00
2022-08-19T12:28:28.098Z,4860.00
2022-08-19T12:29:28.133Z,4980.00
2022-08-19T12:30:28.162Z,5288.00
2022-08-19T12:31:28.199Z,5540.00
2022-08-19T12:32:28.231Z,5504.00
2022-08-19T12:33:28.267Z,5660.00
2022-08-19T12:34:28.301Z,6160.00
2022-08-19T12:35:28.333Z,6824.00
2022-08-19T12:36:28.366Z,7548.00
2022-08-19T12:37:28.399Z,7796.00
2022-08-19T12:38:28.432Z,7992.00
2022-08-19T12:39:28.468Z,8228.00
2022-08-19T12:40:28.501Z,8380.00
2022-08-19T12:41:28.535Z,8344.00
2022-08-19T12:42:28.570Z,8540.00
2022-08-19T12:43:28.599Z,8772.00
2022-08-19T12:44:29.288Z,9152.00
2022-08-19T12:45:28.666Z,9504.00
2022-08-19T12:46:28.698Z,9732.00
2022-08-19T12:47:28.738Z,9568.00
2022-08-19T12:48:33.265Z,9320.00
2022-08-19T12:49:52.007Z,9180.00
2022-08-19T12:50:28.839Z,9276.00
2022-08-19T12:51:28.876Z,9456.00
2022-08-19T12:52:28.905Z,9880.00
2022-08-19T12:53:28.940Z,10072.00
2022-08-19T12:54:28.976Z,10208.00
2022-08-19T12:55:29.010Z,10268.00
2022-08-19T12:56:29.039Z,10436.00
2022-08-19T12:57:32.933Z,10548.00
2022-08-19T12:58:29.108Z,10460.00
2022-08-19T12:59:29.145Z,10144.00
2022-08-19T13:00:29.191Z,9776.00
2022-08-19T13:03:38.691Z,9228.00
2022-08-19T13:04:11.976Z,8724.00
2022-08-19T13:07:08.937Z,6492.00
2022-08-19T13:08:08.962Z,6004.00
2022-08-19T13:10:13.465Z,5812.00
2022-08-19T13:11:13.020Z,5940.00
2022-08-19T13:13:17.053Z,6676.00
2022-08-19T13:14:17.081Z,7060.00
2022-08-19T13:16:21.594Z,7492.00
2022-08-19T13:17:21.140Z,7540.00
2022-08-19T13:19:25.174Z,7464.00
2022-08-19T13:20:25.200Z,7432.00
2022-08-19T13:22:30.220Z,7184.00
2022-08-19T13:23:29.265Z,7032.00
2022-08-19T13:25:33.763Z,6428.00
2022-08-19T13:26:33.322Z,6320.00
2022-08-19T13:28:37.392Z,6068.00
2022-08-19T13:31:01.874Z,5748.00
2022-08-19T13:32:01.446Z,5648.00
2022-08-19T13:34:05.888Z,5560.00
2022-08-19T13:35:05.711Z,5612.00
2022-08-19T13:38:14.206Z,5684.00
2022-08-19T13:39:13.766Z,5640.00
2022-08-19T13:41:17.818Z,5680.00
2022-08-19T13:42:17.841Z,5720.00
2022-08-19T13:44:22.343Z,5984.00
2022-08-19T13:45:21.902Z,6304.00
2022-08-19T13:47:14.851Z,6776.00
2022-08-19T13:48:14.878Z,6868.00
2022-08-19T13:50:19.378Z,7188.00
2022-08-19T13:52:49.909Z,7320.00
2022-08-19T13:53:46.276Z,7352.00
2022-08-19T13:54:43.022Z,7596.00
2022-08-19T13:55:43.052Z,7576.00
2022-08-19T13:56:43.085Z,7608.00
2022-08-19T13:57:43.122Z,7776.00
2022-08-19T13:58:43.155Z,8048.00
2022-08-19T13:59:43.184Z,8332.00
2022-08-19T14:00:43.315Z,8580.00
2022-08-19T14:01:43.264Z,8792.00
2022-08-19T14:02:43.290Z,8916.00
2022-08-19T14:03:43.318Z,8740.00
2022-08-19T14:04:43.356Z,8268.00
2022-08-19T14:05:43.386Z,7792.00
2022-08-19T14:06:43.423Z,7300.00
2022-08-19T14:07:43.458Z,6948.00
2022-08-19T14:08:46.246Z,6856.00
2022-08-19T14:09:43.525Z,6884.00
2022-08-19T14:10:43.579Z,6884.00
2022-08-19T14:11:43.596Z,7044.00
2022-08-19T14:12:43.631Z,7168.00
2022-08-19T14:13:43.664Z,7460.00
2022-08-19T14:14:43.700Z,7776.00
2022-08-19T14:15:43.737Z,8132.00
2022-08-19T14:16:43.766Z,8332.00
2022-08-19T14:17:43.804Z,8312.00
2022-08-19T14:18:43.839Z,8052.00
2022-08-19T14:19:43.874Z,7908.00
2022-08-19T14:20:43.912Z,7688.00
2022-08-19T14:21:43.939Z,7524.00
2022-08-19T14:22:43.975Z,7240.00
2022-08-19T14:23:44.009Z,6952.00
2022-08-19T14:24:47.786Z,6740.00
2022-08-19T14:25:44.079Z,6640.00
2022-08-19T14:26:44.112Z,6920.00
2022-08-19T14:27:44.148Z,7120.00
2022-08-19T14:28:44.184Z,7384.00
2022-08-19T14:29:44.214Z,7356.00
2022-08-19T14:30:44.252Z,7188.00